sensor_id;sensor_type;location;lat;lon;timestamp;pressure;altitude;pressure_sealevel;temperature;humidity
39954;BME280;25631;51.516;-0.470;2023-08-08T00:02:11;101498.06;;;14.77;34.31
39954;BME280;25631;51.516;-0.470;2023-08-08T00:04:48;101496.27;;;14.81;34.46
39954;BME280;25631;51.516;-0.470;2023-08-08T00:07:25;101500.02;;;14.79;34.41
39954;BME280;25631;51.516;-0.470;2023-08-08T00:10:02;101496.74;;;15.04;34.38
39954;BME280;25631;51.516;-0.470;2023-08-08T00:12:39;101489.42;;;14.72;34.49
39954;BME280;25631;51.516;-0.470;2023-08-08T00:15:15;101486.32;;;15.12;34.37
39954;BME280;25631;51.516;-0.470;2023-08-08T00:17:52;101484.04;;;15.09;34.45
39954;BME280;25631;51.516;-0.470;2023-08-08T00:20:28;101479.89;;;15.44;34.35
39954;BME280;25631;51.516;-0.470;2023-08-08T00:23:05;101477.08;;;15.53;34.36
39954;BME280;25631;51.516;-0.470;2023-08-08T00:25:41;101474.35;;;14.86;34.51
39954;BME280;25631;51.516;-0.470;2023-08-08T00:28:17;101472.18;;;15.12;34.45
39954;BME280;25631;51.516;-0.470;2023-08-08T00:30:54;101465.52;;;15.52;34.39
39954;BME280;25631;51.516;-0.470;2023-08-08T00:33:30;101459.22;;;15.08;34.43
39954;BME280;25631;51.516;-0.470;2023-08-08T00:36:07;101457.01;;;15.04;34.37
39954;BME280;25631;51.516;-0.470;2023-08-08T00:38:43;101452.09;;;15.21;34.40
39954;BME280;25631;51.516;-0.470;2023-08-08T00:41:20;101452.67;;;15.27;34.45
39954;BME280;25631;51.516;-0.470;2023-08-08T00:43:56;101450.03;;;15.27;34.43
39954;BME280;25631;51.516;-0.470;2023-08-08T00:46:33;101448.99;;;15.07;34.55
39954;BME280;25631;51.516;-0.470;2023-08-08T00:49:09;101449.08;;;15.00;34.72
39954;BME280;25631;51.516;-0.470;2023-08-08T00:51:46;101447.76;;;14.77;34.96
39954;BME280;25631;51.516;-0.470;2023-08-08T00:54:24;101447.06;;;14.89;35.05
39954;BME280;25631;51.516;-0.470;2023-08-08T00:57:00;101447.15;;;14.66;35.31
39954;BME280;25631;51.516;-0.470;2023-08-08T00:59:37;101440.69;;;14.52;35.40
39954;BME280;25631;51.516;-0.470;2023-08-08T01:02:13;101433.70;;;14.21;35.85
39954;BME280;25631;51.516;-0.470;2023-08-08T01:04:50;101429.21;;;14.24;35.80
39954;BME280;25631;51.516;-0.470;2023-08-08T01:07:33;101428.20;;;14.17;35.92
39954;BME280;25631;51.516;-0.470;2023-08-08T01:10:15;101425.44;;;14.12;35.91
39954;BME280;25631;51.516;-0.470;2023-08-08T01:12:55;101429.80;;;14.33;35.80
39954;BME280;25631;51.516;-0.470;2023-08-08T01:15:34;101428.91;;;14.36;35.76
39954;BME280;25631;51.516;-0.470;2023-08-08T01:18:11;101428.31;;;14.49;35.77
39954;BME280;25631;51.516;-0.470;2023-08-08T01:20:47;101432.01;;;14.47;35.69
39954;BME280;25631;51.516;-0.470;2023-08-08T01:23:30;101430.65;;;14.48;35.75
39954;BME280;25631;51.516;-0.470;2023-08-08T01:26:07;101430.78;;;14.60;35.60
39954;BME280;25631;51.516;-0.470;2023-08-08T01:28:43;101422.78;;;14.71;35.61
39954;BME280;25631;51.516;-0.470;2023-08-08T01:31:20;101421.22;;;14.38;35.65
39954;BME280;25631;51.516;-0.470;2023-08-08T01:33:56;101419.16;;;14.34;35.69
39954;BME280;25631;51.516;-0.470;2023-08-08T01:36:38;101420.83;;;14.48;35.59
39954;BME280;25631;51.516;-0.470;2023-08-08T01:39:22;101419.04;;;14.37;35.67
39954;BME280;25631;51.516;-0.470;2023-08-08T01:42:02;101420.10;;;14.44;35.64
39954;BME280;25631;51.516;-0.470;2023-08-08T01:44:41;101416.14;;;14.42;35.75
39954;BME280;25631;51.516;-0.470;2023-08-08T01:47:18;101420.88;;;14.06;35.96
39954;BME280;25631;51.516;-0.470;2023-08-08T01:49:54;101422.97;;;14.17;35.87
39954;BME280;25631;51.516;-0.470;2023-08-08T01:52:30;101424.18;;;14.35;35.91
39954;BME280;25631;51.516;-0.470;2023-08-08T01:55:08;101423.94;;;14.07;35.93
39954;BME280;25631;51.516;-0.470;2023-08-08T01:57:44;101425.22;;;13.87;36.11
39954;BME280;25631;51.516;-0.470;2023-08-08T02:00:21;101422.84;;;13.98;36.09
39954;BME280;25631;51.516;-0.470;2023-08-08T02:02:57;101418.94;;;14.25;36.13
39954;BME280;25631;51.516;-0.470;2023-08-08T02:05:34;101418.83;;;13.96;36.20
39954;BME280;25631;51.516;-0.470;2023-08-08T02:08:10;101416.27;;;13.94;36.26
39954;BME280;25631;51.516;-0.470;2023-08-08T02:10:47;101417.19;;;13.99;36.31
39954;BME280;25631;51.516;-0.470;2023-08-08T02:13:23;101418.73;;;14.13;36.29
39954;BME280;25631;51.516;-0.470;2023-08-08T02:16:00;101419.11;;;14.06;36.25
39954;BME280;25631;51.516;-0.470;2023-08-08T02:18:36;101414.05;;;13.89;36.32
39954;BME280;25631;51.516;-0.470;2023-08-08T02:21:12;101414.03;;;13.84;36.44
39954;BME280;25631;51.516;-0.470;2023-08-08T02:23:49;101415.43;;;13.72;36.62
39954;BME280;25631;51.516;-0.470;2023-08-08T02:26:25;101416.07;;;13.97;36.67
39954;BME280;25631;51.516;-0.470;2023-08-08T02:29:02;101409.55;;;13.73;36.58
39954;BME280;25631;51.516;-0.470;2023-08-08T02:31:38;101405.41;;;13.94;36.61
39954;BME280;25631;51.516;-0.470;2023-08-08T02:34:15;101405.61;;;13.76;36.62
39954;BME280;25631;51.516;-0.470;2023-08-08T02:36:51;101406.36;;;13.84;36.64
39954;BME280;25631;51.516;-0.470;2023-08-08T02:39:28;101407.94;;;13.85;36.73
39954;BME280;25631;51.516;-0.470;2023-08-08T02:42:05;101402.79;;;13.85;36.73
39954;BME280;25631;51.516;-0.470;2023-08-08T02:44:42;101393.21;;;13.70;36.79
39954;BME280;25631;51.516;-0.470;2023-08-08T02:47:18;101386.65;;;13.73;36.89
39954;BME280;25631;51.516;-0.470;2023-08-08T02:49:55;101386.19;;;13.63;37.01
39954;BME280;25631;51.516;-0.470;2023-08-08T02:52:31;101388.21;;;13.66;36.97
39954;BME280;25631;51.516;-0.470;2023-08-08T02:55:08;101394.31;;;13.58;36.98
39954;BME280;25631;51.516;-0.470;2023-08-08T02:57:45;101397.78;;;13.84;37.01
39954;BME280;25631;51.516;-0.470;2023-08-08T03:00:21;101400.68;;;13.71;37.10
39954;BME280;25631;51.516;-0.470;2023-08-08T03:02:58;101400.97;;;13.89;37.08
39954;BME280;25631;51.516;-0.470;2023-08-08T03:05:34;101401.70;;;13.77;37.25
39954;BME280;25631;51.516;-0.470;2023-08-08T03:08:11;101404.62;;;13.48;37.22
39954;BME280;25631;51.516;-0.470;2023-08-08T03:10:47;101404.17;;;13.86;37.28
39954;BME280;25631;51.516;-0.470;2023-08-08T03:13:24;101402.77;;;13.75;37.17
39954;BME280;25631;51.516;-0.470;2023-08-08T03:16:00;101405.62;;;13.89;37.13
39954;BME280;25631;51.516;-0.470;2023-08-08T03:18:37;101411.94;;;13.98;37.21
39954;BME280;25631;51.516;-0.470;2023-08-08T03:21:13;101414.96;;;13.79;37.07
39954;BME280;25631;51.516;-0.470;2023-08-08T03:23:50;101417.14;;;13.70;37.07
39954;BME280;25631;51.516;-0.470;2023-08-08T03:26:26;101415.41;;;14.06;36.98
39954;BME280;25631;51.516;-0.470;2023-08-08T03:29:02;101418.90;;;14.14;36.93
39954;BME280;25631;51.516;-0.470;2023-08-08T03:31:39;101418.10;;;14.08;36.77
39954;BME280;25631;51.516;-0.470;2023-08-08T03:34:15;101413.05;;;13.82;36.97
39954;BME280;25631;51.516;-0.470;2023-08-08T03:36:52;101412.09;;;13.79;36.84
39954;BME280;25631;51.516;-0.470;2023-08-08T03:39:28;101407.25;;;13.61;36.82
39954;BME280;25631;51.516;-0.470;2023-08-08T03:42:05;101397.89;;;13.99;36.88
39954;BME280;25631;51.516;-0.470;2023-08-08T03:44:41;101389.70;;;13.63;37.11
39954;BME280;25631;51.516;-0.470;2023-08-08T03:47:18;101398.90;;;13.78;37.17
39954;BME280;25631;51.516;-0.470;2023-08-08T03:49:55;101404.98;;;13.96;37.20
39954;BME280;25631;51.516;-0.470;2023-08-08T03:52:32;101405.86;;;13.57;37.11
39954;BME280;25631;51.516;-0.470;2023-08-08T03:55:08;101405.23;;;14.05;37.06
39954;BME280;25631;51.516;-0.470;2023-08-08T03:57:45;101402.95;;;14.05;37.03
39954;BME280;25631;51.516;-0.470;2023-08-08T04:00:21;101407.59;;;13.92;36.99
39954;BME280;25631;51.516;-0.470;2023-08-08T04:02:58;101405.37;;;13.76;36.90
39954;BME280;25631;51.516;-0.470;2023-08-08T04:05:34;101404.86;;;13.97;36.95
39954;BME280;25631;51.516;-0.470;2023-08-08T04:08:11;101404.96;;;14.15;36.86
39954;BME280;25631;51.516;-0.470;2023-08-08T04:10:47;101403.96;;;14.17;36.83
39954;BME280;25631;51.516;-0.470;2023-08-08T04:13:24;101405.30;;;14.08;36.93
39954;BME280;25631;51.516;-0.470;2023-08-08T04:16:00;101406.79;;;13.64;37.20
39954;BME280;25631;51.516;-0.470;2023-08-08T04:18:37;101409.62;;;13.68;37.27
39954;BME280;25631;51.516;-0.470;2023-08-08T04:21:13;101407.76;;;13.72;37.33
39954;BME280;25631;51.516;-0.470;2023-08-08T04:23:50;101405.29;;;13.85;37.38
39954;BME280;25631;51.516;-0.470;2023-08-08T04:26:27;101405.02;;;13.57;37.66
39954;BME280;25631;51.516;-0.470;2023-08-08T04:29:03;101403.15;;;13.42;37.64
39954;BME280;25631;51.516;-0.470;2023-08-08T04:31:39;101399.57;;;13.66;37.69
39954;BME280;25631;51.516;-0.470;2023-08-08T04:34:16;101394.41;;;13.75;37.72
39954;BME280;25631;51.516;-0.470;2023-08-08T04:36:52;101391.55;;;13.56;37.86
39954;BME280;25631;51.516;-0.470;2023-08-08T04:39:29;101391.84;;;13.39;38.18
39954;BME280;25631;51.516;-0.470;2023-08-08T04:42:06;101390.80;;;13.38;38.30
39954;BME280;25631;51.516;-0.470;2023-08-08T04:44:42;101400.68;;;13.15;38.46
39954;BME280;25631;51.516;-0.470;2023-08-08T04:47:19;101401.42;;;13.04;38.63
39954;BME280;25631;51.516;-0.470;2023-08-08T04:49:55;101402.74;;;12.93;38.59
39954;BME280;25631;51.516;-0.470;2023-08-08T04:52:31;101403.04;;;12.90;38.94
39954;BME280;25631;51.516;-0.470;2023-08-08T04:55:09;101401.44;;;12.96;38.83
39954;BME280;25631;51.516;-0.470;2023-08-08T04:57:45;101398.58;;;12.60;39.06
39954;BME280;25631;51.516;-0.470;2023-08-08T05:00:22;101400.45;;;12.71;39.26
39954;BME280;25631;51.516;-0.470;2023-08-08T05:02:58;101407.39;;;12.54;39.47
39954;BME280;25631;51.516;-0.470;2023-08-08T05:05:35;101407.71;;;12.98;39.61
39954;BME280;25631;51.516;-0.470;2023-08-08T05:08:11;101401.20;;;12.58;39.70
39954;BME280;25631;51.516;-0.470;2023-08-08T05:10:48;101384.49;;;12.83;39.89
39954;BME280;25631;51.516;-0.470;2023-08-08T05:13:24;101364.34;;;12.70;40.29
39954;BME280;25631;51.516;-0.470;2023-08-08T05:16:01;101377.00;;;12.51;40.19
39954;BME280;25631;51.516;-0.470;2023-08-08T05:18:37;101376.91;;;12.52;40.14
39954;BME280;25631;51.516;-0.470;2023-08-08T05:21:13;101377.61;;;12.46;40.25
39954;BME280;25631;51.516;-0.470;2023-08-08T05:23:50;101380.46;;;12.80;40.01
39954;BME280;25631;51.516;-0.470;2023-08-08T05:26:27;101380.78;;;12.20;39.83
39954;BME280;25631;51.516;-0.470;2023-08-08T05:29:03;101374.16;;;13.07;39.83
39954;BME280;25631;51.516;-0.470;2023-08-08T05:31:40;101376.17;;;12.99;40.01
39954;BME280;25631;51.516;-0.470;2023-08-08T05:34:17;101384.31;;;13.07;40.10
39954;BME280;25631;51.516;-0.470;2023-08-08T05:36:53;101385.20;;;13.01;40.25
39954;BME280;25631;51.516;-0.470;2023-08-08T05:39:30;101384.00;;;13.01;40.32
39954;BME280;25631;51.516;-0.470;2023-08-08T05:42:07;101378.26;;;13.02;40.27
39954;BME280;25631;51.516;-0.470;2023-08-08T05:44:43;101374.99;;;12.99;40.39
39954;BME280;25631;51.516;-0.470;2023-08-08T05:47:19;101362.75;;;13.09;40.35
39954;BME280;25631;51.516;-0.470;2023-08-08T05:49:56;101358.94;;;13.20;40.29
39954;BME280;25631;51.516;-0.470;2023-08-08T05:52:32;101355.01;;;13.11;40.60
39954;BME280;25631;51.516;-0.470;2023-08-08T05:55:09;101359.18;;;12.91;40.51
39954;BME280;25631;51.516;-0.470;2023-08-08T05:57:45;101355.43;;;12.99;40.60
39954;BME280;25631;51.516;-0.470;2023-08-08T06:00:22;101360.80;;;12.99;40.81
39954;BME280;25631;51.516;-0.470;2023-08-08T06:02:58;101367.84;;;13.10;40.81
39954;BME280;25631;51.516;-0.470;2023-08-08T06:05:35;101368.59;;;13.28;40.66
39954;BME280;25631;51.516;-0.470;2023-08-08T06:08:11;101369.13;;;12.79;41.13
39954;BME280;25631;51.516;-0.470;2023-08-08T06:10:48;101379.51;;;13.19;40.90
39954;BME280;25631;51.516;-0.470;2023-08-08T06:13:24;101377.08;;;13.37;40.94
39954;BME280;25631;51.516;-0.470;2023-08-08T06:16:00;101377.90;;;13.37;40.93
39954;BME280;25631;51.516;-0.470;2023-08-08T06:18:37;101383.71;;;13.52;40.77
39954;BME280;25631;51.516;-0.470;2023-08-08T06:21:13;101378.08;;;13.74;40.59
39954;BME280;25631;51.516;-0.470;2023-08-08T06:23:50;101377.21;;;13.93;40.56
39954;BME280;25631;51.516;-0.470;2023-08-08T06:26:26;101371.99;;;13.80;40.50
39954;BME280;25631;51.516;-0.470;2023-08-08T06:29:03;101372.84;;;14.15;40.56
39954;BME280;25631;51.516;-0.470;2023-08-08T06:31:40;101371.81;;;13.94;40.47
39954;BME280;25631;51.516;-0.470;2023-08-08T06:34:16;101371.07;;;13.93;40.45
39954;BME280;25631;51.516;-0.470;2023-08-08T06:36:52;101373.93;;;13.94;40.50
39954;BME280;25631;51.516;-0.470;2023-08-08T06:39:29;101374.50;;;13.75;40.64
39954;BME280;25631;51.516;-0.470;2023-08-08T06:42:06;101380.55;;;14.08;40.49
39954;BME280;25631;51.516;-0.470;2023-08-08T06:44:44;101378.07;;;14.33;40.38
39954;BME280;25631;51.516;-0.470;2023-08-08T06:47:20;101376.78;;;14.27;40.25
39954;BME280;25631;51.516;-0.470;2023-08-08T06:49:57;101373.01;;;14.35;40.13
39954;BME280;25631;51.516;-0.470;2023-08-08T06:52:33;101372.09;;;14.44;39.98
39954;BME280;25631;51.516;-0.470;2023-08-08T06:55:10;101370.42;;;14.42;40.02
39954;BME280;25631;51.516;-0.470;2023-08-08T06:57:48;101365.35;;;14.56;39.92
39954;BME280;25631;51.516;-0.470;2023-08-08T07:00:24;101364.30;;;14.38;39.87
39954;BME280;25631;51.516;-0.470;2023-08-08T07:03:00;101369.46;;;14.48;40.01
39954;BME280;25631;51.516;-0.470;2023-08-08T07:05:37;101373.36;;;14.37;39.81
39954;BME280;25631;51.516;-0.470;2023-08-08T07:08:13;101371.88;;;14.39;39.66
39954;BME280;25631;51.516;-0.470;2023-08-08T07:10:50;101373.71;;;14.56;39.81
39954;BME280;25631;51.516;-0.470;2023-08-08T07:13:26;101378.47;;;14.27;39.93
39954;BME280;25631;51.516;-0.470;2023-08-08T07:16:03;101377.93;;;14.41;39.78
39954;BME280;25631;51.516;-0.470;2023-08-08T07:18:39;101376.89;;;14.34;40.03
39954;BME280;25631;51.516;-0.470;2023-08-08T07:21:16;101377.84;;;14.56;39.93
39954;BME280;25631;51.516;-0.470;2023-08-08T07:23:52;101378.08;;;14.41;40.02
39954;BME280;25631;51.516;-0.470;2023-08-08T07:26:28;101375.66;;;14.27;40.60
39954;BME280;25631;51.516;-0.470;2023-08-08T07:29:05;101371.93;;;14.57;40.51
39954;BME280;25631;51.516;-0.470;2023-08-08T07:31:41;101371.47;;;14.64;40.84
39954;BME280;25631;51.516;-0.470;2023-08-08T07:34:18;101366.10;;;14.59;41.48
39954;BME280;25631;51.516;-0.470;2023-08-08T07:36:54;101366.31;;;14.20;42.02
39954;BME280;25631;51.516;-0.470;2023-08-08T07:39:31;101365.42;;;13.87;42.70
39954;BME280;25631;51.516;-0.470;2023-08-08T07:42:07;101367.22;;;14.19;42.41
39954;BME280;25631;51.516;-0.470;2023-08-08T07:44:44;101369.46;;;13.90;42.90
39954;BME280;25631;51.516;-0.470;2023-08-08T07:47:21;101363.86;;;13.69;43.10
39954;BME280;25631;51.516;-0.470;2023-08-08T07:49:57;101364.66;;;13.77;42.86
39954;BME280;25631;51.516;-0.470;2023-08-08T07:52:34;101365.52;;;13.95;42.87
39954;BME280;25631;51.516;-0.470;2023-08-08T07:55:11;101366.94;;;14.01;42.94
39954;BME280;25631;51.516;-0.470;2023-08-08T07:57:47;101362.72;;;13.97;43.15
39954;BME280;25631;51.516;-0.470;2023-08-08T08:00:24;101359.27;;;13.92;43.15
39954;BME280;25631;51.516;-0.470;2023-08-08T08:03:00;101359.48;;;13.99;42.86
39954;BME280;25631;51.516;-0.470;2023-08-08T08:05:36;101364.13;;;14.45;42.74
39954;BME280;25631;51.516;-0.470;2023-08-08T08:08:13;101363.50;;;14.29;42.88
39954;BME280;25631;51.516;-0.470;2023-08-08T08:10:50;101362.52;;;14.20;43.11
39954;BME280;25631;51.516;-0.470;2023-08-08T08:13:26;101364.07;;;14.26;43.05
39954;BME280;25631;51.516;-0.470;2023-08-08T08:16:03;101368.84;;;14.25;42.90
39954;BME280;25631;51.516;-0.470;2023-08-08T08:18:40;101367.58;;;14.50;42.80
39954;BME280;25631;51.516;-0.470;2023-08-08T08:21:16;101368.73;;;14.86;42.66
39954;BME280;25631;51.516;-0.470;2023-08-08T08:23:53;101370.28;;;14.60;42.73
39954;BME280;25631;51.516;-0.470;2023-08-08T08:26:29;101367.98;;;14.66;43.19
39954;BME280;25631;51.516;-0.470;2023-08-08T08:29:06;101369.19;;;14.50;43.00
39954;BME280;25631;51.516;-0.470;2023-08-08T08:31:42;101372.60;;;14.73;43.24
39954;BME280;25631;51.516;-0.470;2023-08-08T08:34:18;101370.02;;;14.41;43.38
39954;BME280;25631;51.516;-0.470;2023-08-08T08:36:55;101362.52;;;14.41;43.39
39954;BME280;25631;51.516;-0.470;2023-08-08T08:39:31;101358.44;;;14.48;43.64
39954;BME280;25631;51.516;-0.470;2023-08-08T08:42:10;101360.87;;;14.81;43.36
39954;BME280;25631;51.516;-0.470;2023-08-08T08:44:50;101363.48;;;14.74;43.71
39954;BME280;25631;51.516;-0.470;2023-08-08T08:47:30;101364.43;;;14.59;43.85
39954;BME280;25631;51.516;-0.470;2023-08-08T08:50:07;101371.12;;;14.59;43.77
39954;BME280;25631;51.516;-0.470;2023-08-08T08:52:44;101368.83;;;14.59;43.41
39954;BME280;25631;51.516;-0.470;2023-08-08T08:55:21;101358.96;;;14.94;43.41
39954;BME280;25631;51.516;-0.470;2023-08-08T08:57:59;101355.16;;;14.52;43.82
39954;BME280;25631;51.516;-0.470;2023-08-08T09:00:36;101359.01;;;14.89;43.75
39954;BME280;25631;51.516;-0.470;2023-08-08T09:03:13;101356.81;;;14.51;44.08
39954;BME280;25631;51.516;-0.470;2023-08-08T09:05:51;101358.84;;;14.62;44.20
39954;BME280;25631;51.516;-0.470;2023-08-08T09:08:28;101361.59;;;14.55;44.08
39954;BME280;25631;51.516;-0.470;2023-08-08T09:11:05;101355.12;;;14.60;43.95
39954;BME280;25631;51.516;-0.470;2023-08-08T09:13:41;101358.91;;;14.73;43.48
39954;BME280;25631;51.516;-0.470;2023-08-08T09:16:18;101355.86;;;14.97;43.39
39954;BME280;25631;51.516;-0.470;2023-08-08T09:18:54;101357.09;;;14.94;43.40
39954;BME280;25631;51.516;-0.470;2023-08-08T09:21:31;101351.69;;;14.77;43.55
39954;BME280;25631;51.516;-0.470;2023-08-08T09:24:08;101347.64;;;14.91;43.76
39954;BME280;25631;51.516;-0.470;2023-08-08T09:26:45;101343.92;;;15.03;43.79
39954;BME280;25631;51.516;-0.470;2023-08-08T09:29:22;101345.47;;;15.13;43.69
39954;BME280;25631;51.516;-0.470;2023-08-08T09:31:58;101348.49;;;15.44;43.60
39954;BME280;25631;51.516;-0.470;2023-08-08T09:34:35;101346.95;;;15.51;43.35
39954;BME280;25631;51.516;-0.470;2023-08-08T09:37:12;101346.32;;;15.28;43.15
39954;BME280;25631;51.516;-0.470;2023-08-08T09:39:56;101350.11;;;15.37;42.95
39954;BME280;25631;51.516;-0.470;2023-08-08T09:42:33;101348.45;;;15.57;42.94
39954;BME280;25631;51.516;-0.470;2023-08-08T09:45:10;101345.46;;;15.28;43.12
39954;BME280;25631;51.516;-0.470;2023-08-08T09:47:46;101346.40;;;15.22;43.29
39954;BME280;25631;51.516;-0.470;2023-08-08T09:50:23;101345.52;;;15.09;43.46
39954;BME280;25631;51.516;-0.470;2023-08-08T09:53:01;101344.77;;;15.10;43.69
39954;BME280;25631;51.516;-0.470;2023-08-08T09:55:38;101351.99;;;14.75;43.77
39954;BME280;25631;51.516;-0.470;2023-08-08T09:58:15;101343.56;;;14.98;43.85
39954;BME280;25631;51.516;-0.470;2023-08-08T10:00:52;101345.80;;;14.83;44.17
39954;BME280;25631;51.516;-0.470;2023-08-08T10:03:28;101335.60;;;14.78;43.93
39954;BME280;25631;51.516;-0.470;2023-08-08T10:06:05;101326.79;;;14.98;44.09
39954;BME280;25631;51.516;-0.470;2023-08-08T10:08:42;101320.02;;;14.90;44.23
39954;BME280;25631;51.516;-0.470;2023-08-08T10:11:21;101319.50;;;15.20;43.79
39954;BME280;25631;51.516;-0.470;2023-08-08T10:14:02;101322.56;;;15.03;44.22
39954;BME280;25631;51.516;-0.470;2023-08-08T10:16:39;101315.29;;;14.88;44.35
39954;BME280;25631;51.516;-0.470;2023-08-08T10:19:21;101315.11;;;14.82;44.20
39954;BME280;25631;51.516;-0.470;2023-08-08T10:22:00;101317.68;;;15.13;44.51
39954;BME280;25631;51.516;-0.470;2023-08-08T10:24:39;101314.89;;;14.91;44.55
39954;BME280;25631;51.516;-0.470;2023-08-08T10:27:27;101306.47;;;14.90;44.42
39954;BME280;25631;51.516;-0.470;2023-08-08T10:30:07;101303.73;;;14.92;44.49
39954;BME280;25631;51.516;-0.470;2023-08-08T10:32:45;101303.54;;;15.02;44.87
39954;BME280;25631;51.516;-0.470;2023-08-08T10:35:22;101300.13;;;14.99;44.68
39954;BME280;25631;51.516;-0.470;2023-08-08T10:37:58;101294.55;;;15.29;44.60
39954;BME280;25631;51.516;-0.470;2023-08-08T10:40:35;101290.08;;;15.53;44.64
39954;BME280;25631;51.516;-0.470;2023-08-08T10:43:12;101285.59;;;15.56;44.34
39954;BME280;25631;51.516;-0.470;2023-08-08T10:45:51;101282.85;;;15.85;44.65
39954;BME280;25631;51.516;-0.470;2023-08-08T10:48:28;101281.23;;;16.03;44.22
39954;BME280;25631;51.516;-0.470;2023-08-08T10:51:06;101281.53;;;15.72;43.75
39954;BME280;25631;51.516;-0.470;2023-08-08T10:53:43;101280.31;;;16.09;43.23
39954;BME280;25631;51.516;-0.470;2023-08-08T10:56:20;101280.52;;;15.99;43.52
39954;BME280;25631;51.516;-0.470;2023-08-08T10:58:58;101281.73;;;16.13;43.61
39954;BME280;25631;51.516;-0.470;2023-08-08T11:01:36;101280.35;;;16.46;43.35
39954;BME280;25631;51.516;-0.470;2023-08-08T11:04:14;101274.17;;;16.31;43.26
39954;BME280;25631;51.516;-0.470;2023-08-08T11:06:53;101273.07;;;16.15;43.32
39954;BME280;25631;51.516;-0.470;2023-08-08T11:09:29;101268.60;;;16.49;43.34
39954;BME280;25631;51.516;-0.470;2023-08-08T11:12:12;101267.41;;;16.20;43.60
39954;BME280;25631;51.516;-0.470;2023-08-08T11:14:55;101271.79;;;16.26;44.04
39954;BME280;25631;51.516;-0.470;2023-08-08T11:17:32;101271.44;;;16.35;44.11
39954;BME280;25631;51.516;-0.470;2023-08-08T11:20:09;101264.04;;;16.56;44.01
39954;BME280;25631;51.516;-0.470;2023-08-08T11:22:51;101257.70;;;16.50;44.10
39954;BME280;25631;51.516;-0.470;2023-08-08T11:25:29;101253.38;;;16.42;44.64
39954;BME280;25631;51.516;-0.470;2023-08-08T11:28:06;101250.30;;;16.63;44.82
39954;BME280;25631;51.516;-0.470;2023-08-08T11:30:44;101256.49;;;16.47;44.82
39954;BME280;25631;51.516;-0.470;2023-08-08T11:33:21;101250.39;;;16.54;45.02
39954;BME280;25631;51.516;-0.470;2023-08-08T11:35:58;101251.68;;;16.61;45.34
39954;BME280;25631;51.516;-0.470;2023-08-08T11:38:36;101253.52;;;16.52;45.43
39954;BME280;25631;51.516;-0.470;2023-08-08T11:41:13;101254.28;;;16.17;45.75
39954;BME280;25631;51.516;-0.470;2023-08-08T11:43:50;101251.78;;;16.14;45.64
39954;BME280;25631;51.516;-0.470;2023-08-08T11:46:27;101251.76;;;16.22;45.92
39954;BME280;25631;51.516;-0.470;2023-08-08T11:49:05;101251.91;;;16.01;45.82
39954;BME280;25631;51.516;-0.470;2023-08-08T11:51:43;101250.60;;;15.95;45.80
39954;BME280;25631;51.516;-0.470;2023-08-08T11:54:20;101248.44;;;15.84;45.97
39954;BME280;25631;51.516;-0.470;2023-08-08T11:56:56;101248.25;;;16.03;45.89
39954;BME280;25631;51.516;-0.470;2023-08-08T11:59:33;101244.77;;;15.63;46.32
39954;BME280;25631;51.516;-0.470;2023-08-08T12:02:10;101245.21;;;15.82;46.59
39954;BME280;25631;51.516;-0.470;2023-08-08T12:04:47;101242.36;;;16.07;46.75
39954;BME280;25631;51.516;-0.470;2023-08-08T12:07:23;101236.59;;;15.75;46.48
39954;BME280;25631;51.516;-0.470;2023-08-08T12:10:00;101238.48;;;15.70;46.45
39954;BME280;25631;51.516;-0.470;2023-08-08T12:12:36;101232.04;;;16.11;46.42
39954;BME280;25631;51.516;-0.470;2023-08-08T12:15:13;101230.90;;;16.22;46.42
39954;BME280;25631;51.516;-0.470;2023-08-08T12:17:50;101229.64;;;16.02;46.43
39954;BME280;25631;51.516;-0.470;2023-08-08T12:20:28;101228.64;;;16.03;46.52
39954;BME280;25631;51.516;-0.470;2023-08-08T12:23:04;101223.81;;;15.90;46.79
39954;BME280;25631;51.516;-0.470;2023-08-08T12:25:42;101219.54;;;16.06;46.57
39954;BME280;25631;51.516;-0.470;2023-08-08T12:28:19;101216.88;;;16.34;46.79
39954;BME280;25631;51.516;-0.470;2023-08-08T12:30:55;101221.74;;;15.93;46.81
39954;BME280;25631;51.516;-0.470;2023-08-08T12:33:32;101224.78;;;15.82;47.03
39954;BME280;25631;51.516;-0.470;2023-08-08T12:36:09;101229.80;;;15.88;47.24
39954;BME280;25631;51.516;-0.470;2023-08-08T12:38:45;101223.05;;;15.93;46.87
39954;BME280;25631;51.516;-0.470;2023-08-08T12:41:23;101221.28;;;15.74;47.37
39954;BME280;25631;51.516;-0.470;2023-08-08T12:43:59;101213.09;;;15.91;47.51
39954;BME280;25631;51.516;-0.470;2023-08-08T12:46:36;101209.25;;;15.82;47.48
39954;BME280;25631;51.516;-0.470;2023-08-08T12:49:13;101206.74;;;15.81;47.60
39954;BME280;25631;51.516;-0.470;2023-08-08T12:51:50;101213.04;;;15.78;47.58
39954;BME280;25631;51.516;-0.470;2023-08-08T12:54:27;101205.74;;;15.96;47.26
39954;BME280;25631;51.516;-0.470;2023-08-08T12:57:03;101207.11;;;15.81;47.21
39954;BME280;25631;51.516;-0.470;2023-08-08T12:59:40;101210.21;;;15.90;47.44
39954;BME280;25631;51.516;-0.470;2023-08-08T13:02:16;101205.30;;;15.75;47.25
39954;BME280;25631;51.516;-0.470;2023-08-08T13:04:53;101211.03;;;16.13;47.23
39954;BME280;25631;51.516;-0.470;2023-08-08T13:07:29;101208.54;;;15.86;47.22
39954;BME280;25631;51.516;-0.470;2023-08-08T13:10:07;101203.65;;;16.00;47.13
39954;BME280;25631;51.516;-0.470;2023-08-08T13:12:43;101198.55;;;15.88;47.18
39954;BME280;25631;51.516;-0.470;2023-08-08T13:15:20;101198.26;;;15.92;47.33
39954;BME280;25631;51.516;-0.470;2023-08-08T13:17:56;101199.13;;;16.00;47.50
39954;BME280;25631;51.516;-0.470;2023-08-08T13:20:33;101196.12;;;15.97;47.47
39954;BME280;25631;51.516;-0.470;2023-08-08T13:23:09;101194.56;;;15.86;47.57
39954;BME280;25631;51.516;-0.470;2023-08-08T13:25:46;101193.50;;;15.91;47.44
39954;BME280;25631;51.516;-0.470;2023-08-08T13:28:22;101193.01;;;16.03;47.66
39954;BME280;25631;51.516;-0.470;2023-08-08T13:30:59;101186.68;;;15.93;47.67